sensor_id;sensor_type;location;lat;lon;timestamp;pressure;altitude;pressure_sealevel;temperature;humidity
77723;BME280;67811;42.656;23.394;2024-03-08T00:01:09;95102.47;;;5.54;90.17
77723;BME280;67811;42.656;23.394;2024-03-08T00:05:15;95104.09;;;5.73;89.60
77723;BME280;67811;42.656;23.394;2024-03-08T00:09:20;95100.13;;;5.69;89.37
77723;BME280;67811;42.656;23.394;2024-03-08T00:13:25;95097.94;;;5.65;89.28
77723;BME280;67811;42.656;23.394;2024-03-08T00:17:31;95099.50;;;5.49;88.41
77723;BME280;67811;42.656;23.394;2024-03-08T00:21:36;95101.72;;;5.62;88.58
77723;BME280;67811;42.656;23.394;2024-03-08T00:25:41;95096.56;;;5.52;88.94
77723;BME280;67811;42.656;23.394;2024-03-08T00:29:47;95092.63;;;5.31;88.60
77723;BME280;67811;42.656;23.394;2024-03-08T00:33:52;95090.59;;;4.89;91.35
77723;BME280;67811;42.656;23.394;2024-03-08T00:37:57;95087.69;;;4.74;92.71
77723;BME280;67811;42.656;23.394;2024-03-08T00:42:03;95079.50;;;4.59;92.93
77723;BME280;67811;42.656;23.394;2024-03-08T00:46:08;95082.56;;;4.55;94.51
77723;BME280;67811;42.656;23.394;2024-03-08T00:50:13;95078.28;;;4.54;95.04
77723;BME280;67811;42.656;23.394;2024-03-08T00:54:18;95074.78;;;4.63;94.93
77723;BME280;67811;42.656;23.394;2024-03-08T00:58:24;95064.44;;;4.79;94.71
77723;BME280;67811;42.656;23.394;2024-03-08T01:02:29;95064.44;;;4.97;94.71
77723;BME280;67811;42.656;23.394;2024-03-08T01:06:34;95059.56;;;5.02;94.25
77723;BME280;67811;42.656;23.394;2024-03-08T01:10:40;95053.41;;;5.11;93.41
77723;BME280;67811;42.656;23.394;2024-03-08T01:14:45;95057.22;;;5.17;92.88
77723;BME280;67811;42.656;23.394;2024-03-08T01:18:50;95053.06;;;5.14;92.62
77723;BME280;67811;42.656;23.394;2024-03-08T01:22:56;95048.72;;;5.05;91.97
77723;BME280;67811;42.656;23.394;2024-03-08T01:27:02;95047.72;;;4.80;93.07
77723;BME280;67811;42.656;23.394;2024-03-08T01:31:08;95044.03;;;4.91;92.65
77723;BME280;67811;42.656;23.394;2024-03-08T01:35:13;95039.16;;;4.96;92.69
77723;BME280;67811;42.656;23.394;2024-03-08T01:39:18;95036.53;;;4.96;92.64
77723;BME280;67811;42.656;23.394;2024-03-08T01:43:28;95040.41;;;5.10;92.11
77723;BME280;67811;42.656;23.394;2024-03-08T01:47:34;95039.28;;;5.12;91.78
77723;BME280;67811;42.656;23.394;2024-03-08T01:51:41;95039.53;;;5.27;91.92
77723;BME280;67811;42.656;23.394;2024-03-08T01:55:47;95035.69;;;5.13;90.01
77723;BME280;67811;42.656;23.394;2024-03-08T01:59:53;95029.59;;;5.13;90.26
77723;BME280;67811;42.656;23.394;2024-03-08T02:03:59;95032.38;;;5.11;89.97
77723;BME280;67811;42.656;23.394;2024-03-08T02:08:06;95034.28;;;5.27;89.62
77723;BME280;67811;42.656;23.394;2024-03-08T02:12:13;95031.06;;;5.33;90.00
77723;BME280;67811;42.656;23.394;2024-03-08T02:16:22;95033.72;;;5.15;89.93
77723;BME280;67811;42.656;23.394;2024-03-08T02:20:29;95039.66;;;5.17;90.11
77723;BME280;67811;42.656;23.394;2024-03-08T02:24:34;95030.34;;;5.23;89.19
77723;BME280;67811;42.656;23.394;2024-03-08T02:28:40;95040.47;;;5.18;89.20
77723;BME280;67811;42.656;23.394;2024-03-08T02:32:45;95031.81;;;5.25;88.96
77723;BME280;67811;42.656;23.394;2024-03-08T02:36:50;95050.56;;;5.31;88.21
77723;BME280;67811;42.656;23.394;2024-03-08T02:40:56;95049.97;;;5.37;87.93
77723;BME280;67811;42.656;23.394;2024-03-08T02:45:01;95040.56;;;5.08;87.34
77723;BME280;67811;42.656;23.394;2024-03-08T02:49:06;95049.66;;;4.96;87.64
77723;BME280;67811;42.656;23.394;2024-03-08T02:53:12;95051.06;;;5.08;86.26
77723;BME280;67811;42.656;23.394;2024-03-08T02:57:18;95048.31;;;4.92;85.57
77723;BME280;67811;42.656;23.394;2024-03-08T03:01:23;95053.63;;;5.00;84.08
77723;BME280;67811;42.656;23.394;2024-03-08T03:05:29;95056.13;;;4.84;84.94
77723;BME280;67811;42.656;23.394;2024-03-08T03:09:34;95056.00;;;4.93;85.29
77723;BME280;67811;42.656;23.394;2024-03-08T03:13:40;95055.41;;;4.99;86.06
77723;BME280;67811;42.656;23.394;2024-03-08T03:17:49;95055.28;;;5.01;84.34
77723;BME280;67811;42.656;23.394;2024-03-08T03:21:54;95065.19;;;4.89;84.53
77723;BME280;67811;42.656;23.394;2024-03-08T03:26:00;95073.03;;;4.71;84.52
77723;BME280;67811;42.656;23.394;2024-03-08T03:30:06;95074.78;;;4.63;82.79
77723;BME280;67811;42.656;23.394;2024-03-08T03:34:12;95078.13;;;4.55;83.67
77723;BME280;67811;42.656;23.394;2024-03-08T03:38:17;95075.00;;;4.69;82.96
77723;BME280;67811;42.656;23.394;2024-03-08T03:42:23;95084.41;;;4.90;82.34
77723;BME280;67811;42.656;23.394;2024-03-08T03:46:28;95078.81;;;4.93;81.40
77723;BME280;67811;42.656;23.394;2024-03-08T03:50:33;95084.66;;;5.05;81.03
77723;BME280;67811;42.656;23.394;2024-03-08T03:54:39;95088.13;;;4.87;81.23
77723;BME280;67811;42.656;23.394;2024-03-08T03:58:44;95092.09;;;5.09;80.04
77723;BME280;67811;42.656;23.394;2024-03-08T04:02:49;95087.59;;;5.19;79.47
77723;BME280;67811;42.656;23.394;2024-03-08T04:06:55;95097.50;;;5.25;80.19
77723;BME280;67811;42.656;23.394;2024-03-08T04:11:00;95095.41;;;5.29;79.36
77723;BME280;67811;42.656;23.394;2024-03-08T04:15:06;95112.13;;;5.10;78.74
77723;BME280;67811;42.656;23.394;2024-03-08T04:19:11;95108.69;;;5.10;78.73
77723;BME280;67811;42.656;23.394;2024-03-08T04:23:17;95104.94;;;4.94;77.88
77723;BME280;67811;42.656;23.394;2024-03-08T04:27:22;95113.94;;;4.92;79.72
77723;BME280;67811;42.656;23.394;2024-03-08T04:31:27;95121.59;;;5.03;78.85
77723;BME280;67811;42.656;23.394;2024-03-08T04:35:32;95124.53;;;5.00;78.86
77723;BME280;67811;42.656;23.394;2024-03-08T04:39:38;95126.19;;;5.01;79.06
77723;BME280;67811;42.656;23.394;2024-03-08T04:43:43;95136.81;;;4.99;78.69
77723;BME280;67811;42.656;23.394;2024-03-08T04:47:48;95131.81;;;5.06;78.04
77723;BME280;67811;42.656;23.394;2024-03-08T04:51:54;95140.63;;;4.87;79.79
77723;BME280;67811;42.656;23.394;2024-03-08T04:55:59;95131.44;;;5.01;80.03
77723;BME280;67811;42.656;23.394;2024-03-08T05:00:05;95134.50;;;4.96;79.45
77723;BME280;67811;42.656;23.394;2024-03-08T05:04:10;95142.31;;;5.06;79.87
77723;BME280;67811;42.656;23.394;2024-03-08T05:08:15;95147.53;;;4.88;81.43
77723;BME280;67811;42.656;23.394;2024-03-08T05:12:21;95151.50;;;4.74;83.00
77723;BME280;67811;42.656;23.394;2024-03-08T05:16:26;95160.41;;;4.36;84.27
77723;BME280;67811;42.656;23.394;2024-03-08T05:20:31;95161.78;;;4.03;85.44
77723;BME280;67811;42.656;23.394;2024-03-08T05:24:36;95156.84;;;3.90;86.28
77723;BME280;67811;42.656;23.394;2024-03-08T05:28:42;95173.31;;;3.63;86.89
77723;BME280;67811;42.656;23.394;2024-03-08T05:32:47;95179.06;;;3.77;88.40
77723;BME280;67811;42.656;23.394;2024-03-08T05:36:52;95185.72;;;3.71;87.68
77723;BME280;67811;42.656;23.394;2024-03-08T05:40:58;95194.94;;;3.75;88.70
77723;BME280;67811;42.656;23.394;2024-03-08T05:45:04;95200.09;;;3.57;87.41
77723;BME280;67811;42.656;23.394;2024-03-08T05:49:09;95206.00;;;3.40;89.17
77723;BME280;67811;42.656;23.394;2024-03-08T05:53:14;95215.91;;;3.56;88.39
77723;BME280;67811;42.656;23.394;2024-03-08T05:57:20;95211.66;;;3.26;89.06
77723;BME280;67811;42.656;23.394;2024-03-08T06:01:25;95215.91;;;3.27;89.21
77723;BME280;67811;42.656;23.394;2024-03-08T06:05:31;95228.03;;;3.18;88.10
77723;BME280;67811;42.656;23.394;2024-03-08T06:09:36;95225.56;;;3.26;89.43
77723;BME280;67811;42.656;23.394;2024-03-08T06:13:41;95233.84;;;3.70;89.64
77723;BME280;67811;42.656;23.394;2024-03-08T06:17:47;95236.63;;;3.68;88.10
77723;BME280;67811;42.656;23.394;2024-03-08T06:21:52;95241.03;;;3.58;88.27
77723;BME280;67811;42.656;23.394;2024-03-08T06:25:57;95252.47;;;3.67;88.49
77723;BME280;67811;42.656;23.394;2024-03-08T06:30:03;95242.94;;;3.76;87.67
77723;BME280;67811;42.656;23.394;2024-03-08T06:34:08;95251.50;;;3.87;85.10
77723;BME280;67811;42.656;23.394;2024-03-08T06:38:14;95251.78;;;3.75;85.51
77723;BME280;67811;42.656;23.394;2024-03-08T06:42:19;95250.50;;;3.98;86.40
77723;BME280;67811;42.656;23.394;2024-03-08T06:46:24;95252.03;;;3.91;84.01
77723;BME280;67811;42.656;23.394;2024-03-08T06:50:29;95250.19;;;4.11;85.18
77723;BME280;67811;42.656;23.394;2024-03-08T06:54:35;95257.50;;;4.17;84.09
77723;BME280;67811;42.656;23.394;2024-03-08T06:58:40;95259.41;;;4.34;84.61
77723;BME280;67811;42.656;23.394;2024-03-08T07:02:46;95262.00;;;4.44;84.60
77723;BME280;67811;42.656;23.394;2024-03-08T07:06:51;95259.94;;;4.75;82.07
77723;BME280;67811;42.656;23.394;2024-03-08T07:10:57;95258.28;;;4.84;79.86
77723;BME280;67811;42.656;23.394;2024-03-08T07:15:02;95262.81;;;4.82;80.27
77723;BME280;67811;42.656;23.394;2024-03-08T07:19:08;95258.38;;;5.10;79.57
77723;BME280;67811;42.656;23.394;2024-03-08T07:23:13;95255.16;;;5.16;78.30
77723;BME280;67811;42.656;23.394;2024-03-08T07:27:18;95263.31;;;5.22;77.31
77723;BME280;67811;42.656;23.394;2024-03-08T07:31:23;95264.53;;;5.46;75.23
77723;BME280;67811;42.656;23.394;2024-03-08T07:35:29;95265.53;;;5.45;75.42
77723;BME280;67811;42.656;23.394;2024-03-08T07:39:35;95263.50;;;5.74;74.02
77723;BME280;67811;42.656;23.394;2024-03-08T07:43:40;95260.88;;;5.92;71.96
77723;BME280;67811;42.656;23.394;2024-03-08T07:47:45;95271.75;;;5.97;72.42
77723;BME280;67811;42.656;23.394;2024-03-08T07:51:50;95268.88;;;5.91;72.30
77723;BME280;67811;42.656;23.394;2024-03-08T07:55:56;95270.72;;;6.08;73.43
77723;BME280;67811;42.656;23.394;2024-03-08T08:00:01;95265.81;;;6.13;72.60
77723;BME280;67811;42.656;23.394;2024-03-08T08:04:06;95267.13;;;5.91;73.60
77723;BME280;67811;42.656;23.394;2024-03-08T08:08:11;95260.75;;;6.20;72.75
77723;BME280;67811;42.656;23.394;2024-03-08T08:12:17;95273.22;;;6.36;72.56
77723;BME280;67811;42.656;23.394;2024-03-08T08:16:25;95269.41;;;6.56;71.60
77723;BME280;67811;42.656;23.394;2024-03-08T08:20:30;95261.59;;;6.72;69.09
77723;BME280;67811;42.656;23.394;2024-03-08T08:24:36;95255.59;;;6.62;69.84
77723;BME280;67811;42.656;23.394;2024-03-08T08:28:41;95256.69;;;6.77;70.46
77723;BME280;67811;42.656;23.394;2024-03-08T08:32:46;95263.13;;;6.83;70.34
77723;BME280;67811;42.656;23.394;2024-03-08T08:36:52;95259.34;;;6.85;68.25
77723;BME280;67811;42.656;23.394;2024-03-08T08:40:57;95265.38;;;7.04;67.59
77723;BME280;67811;42.656;23.394;2024-03-08T08:45:04;95263.03;;;7.51;67.04
77723;BME280;67811;42.656;23.394;2024-03-08T08:49:10;95255.03;;;8.42;63.62
77723;BME280;67811;42.656;23.394;2024-03-08T08:53:15;95249.28;;;8.94;61.37
77723;BME280;67811;42.656;23.394;2024-03-08T08:57:20;95248.94;;;9.37;58.18
77723;BME280;67811;42.656;23.394;2024-03-08T09:01:26;95252.47;;;9.83;57.99
77723;BME280;67811;42.656;23.394;2024-03-08T09:05:31;95242.34;;;9.87;57.01
77723;BME280;67811;42.656;23.394;2024-03-08T09:09:36;95238.59;;;10.79;55.14
77723;BME280;67811;42.656;23.394;2024-03-08T09:13:44;95237.53;;;11.40;51.45
77723;BME280;67811;42.656;23.394;2024-03-08T09:17:50;95232.91;;;11.99;50.25
77723;BME280;67811;42.656;23.394;2024-03-08T09:21:55;95231.22;;;11.41;49.97
77723;BME280;67811;42.656;23.394;2024-03-08T09:26:00;95237.09;;;11.72;49.60
77723;BME280;67811;42.656;23.394;2024-03-08T09:30:06;95235.47;;;12.14;48.67
77723;BME280;67811;42.656;23.394;2024-03-08T09:34:11;95233.16;;;11.83;49.55
77723;BME280;67811;42.656;23.394;2024-03-08T09:38:17;95225.72;;;13.05;46.92
77723;BME280;67811;42.656;23.394;2024-03-08T09:42:22;95235.47;;;12.14;47.35
77723;BME280;67811;42.656;23.394;2024-03-08T09:46:27;95231.25;;;11.62;49.50
77723;BME280;67811;42.656;23.394;2024-03-08T09:50:32;95233.53;;;11.29;50.66
77723;BME280;67811;42.656;23.394;2024-03-08T09:54:38;95231.41;;;11.39;48.79
77723;BME280;67811;42.656;23.394;2024-03-08T09:58:43;95229.88;;;11.66;48.27
77723;BME280;67811;42.656;23.394;2024-03-08T10:02:50;95230.03;;;12.72;47.81
77723;BME280;67811;42.656;23.394;2024-03-08T10:06:55;95231.38;;;12.11;46.60
77723;BME280;67811;42.656;23.394;2024-03-08T10:11:01;95232.66;;;11.79;48.08
77723;BME280;67811;42.656;23.394;2024-03-08T10:15:07;95227.59;;;10.97;49.32
77723;BME280;67811;42.656;23.394;2024-03-08T10:19:13;95241.59;;;10.76;50.81
77723;BME280;67811;42.656;23.394;2024-03-08T10:23:18;95234.00;;;10.59;51.07
77723;BME280;67811;42.656;23.394;2024-03-08T10:27:23;95231.81;;;10.62;51.52
77723;BME280;67811;42.656;23.394;2024-03-08T10:31:29;95232.97;;;10.60;50.92
77723;BME280;67811;42.656;23.394;2024-03-08T10:35:34;95223.31;;;10.96;50.20
77723;BME280;67811;42.656;23.394;2024-03-08T10:39:42;95220.75;;;12.33;46.82
77723;BME280;67811;42.656;23.394;2024-03-08T10:48:06;95209.19;;;13.10;44.03
77723;BME280;67811;42.656;23.394;2024-03-08T10:52:15;95210.94;;;12.61;45.16
77723;BME280;67811;42.656;23.394;2024-03-08T10:56:21;95205.91;;;13.08;43.54
77723;BME280;67811;42.656;23.394;2024-03-08T11:00:26;95194.25;;;13.09;44.72
77723;BME280;67811;42.656;23.394;2024-03-08T11:04:32;95202.47;;;12.51;44.92
77723;BME280;67811;42.656;23.394;2024-03-08T11:08:37;95202.06;;;11.98;46.43
77723;BME280;67811;42.656;23.394;2024-03-08T11:12:42;95189.25;;;11.66;47.42
77723;BME280;67811;42.656;23.394;2024-03-08T11:16:48;95191.91;;;11.66;46.93
77723;BME280;67811;42.656;23.394;2024-03-08T11:20:56;95189.06;;;11.67;47.87
77723;BME280;67811;42.656;23.394;2024-03-08T11:25:08;95186.50;;;11.59;46.94
77723;BME280;67811;42.656;23.394;2024-03-08T11:33:39;95168.47;;;13.64;42.26
77723;BME280;67811;42.656;23.394;2024-03-08T11:37:46;95164.59;;;13.80;41.07
77723;BME280;67811;42.656;23.394;2024-03-08T11:41:51;95163.38;;;14.22;41.51
77723;BME280;67811;42.656;23.394;2024-03-08T11:46:13;95167.34;;;13.32;41.59
77723;BME280;67811;42.656;23.394;2024-03-08T11:50:18;95161.94;;;12.77;42.68
77723;BME280;67811;42.656;23.394;2024-03-08T11:54:24;95166.38;;;12.35;43.23
77723;BME280;67811;42.656;23.394;2024-03-08T11:58:29;95171.88;;;12.06;45.63
77723;BME280;67811;42.656;23.394;2024-03-08T12:02:35;95171.03;;;12.27;44.56
77723;BME280;67811;42.656;23.394;2024-03-08T12:06:41;95158.91;;;12.80;44.47
77723;BME280;67811;42.656;23.394;2024-03-08T12:10:46;95158.03;;;13.76;41.53
77723;BME280;67811;42.656;23.394;2024-03-08T12:14:51;95146.78;;;14.46;40.32
77723;BME280;67811;42.656;23.394;2024-03-08T12:18:57;95158.06;;;14.48;40.44
77723;BME280;67811;42.656;23.394;2024-03-08T12:23:02;95146.78;;;14.46;40.79
77723;BME280;67811;42.656;23.394;2024-03-08T12:27:20;95156.84;;;14.58;39.27
77723;BME280;67811;42.656;23.394;2024-03-08T12:31:25;95153.66;;;15.07;39.78
77723;BME280;67811;42.656;23.394;2024-03-08T12:35:30;95151.91;;;14.61;39.66
77723;BME280;67811;42.656;23.394;2024-03-08T12:39:36;95140.22;;;14.69;39.01
77723;BME280;67811;42.656;23.394;2024-03-08T12:43:41;95138.41;;;14.03;41.04
77723;BME280;67811;42.656;23.394;2024-03-08T12:47:46;95144.44;;;13.37;41.14
77723;BME280;67811;42.656;23.394;2024-03-08T12:51:52;95133.94;;;12.75;42.64
77723;BME280;67811;42.656;23.394;2024-03-08T12:55:57;95136.56;;;12.40;43.17
77723;BME280;67811;42.656;23.394;2024-03-08T13:00:03;95137.91;;;12.57;43.22
77723;BME280;67811;42.656;23.394;2024-03-08T13:04:09;95138.78;;;13.12;42.39
77723;BME280;67811;42.656;23.394;2024-03-08T13:08:15;95133.00;;;13.50;40.75
77723;BME280;67811;42.656;23.394;2024-03-08T13:12:21;95136.59;;;13.23;41.68
77723;BME280;67811;42.656;23.394;2024-03-08T13:16:26;95136.94;;;14.01;39.90
77723;BME280;67811;42.656;23.394;2024-03-08T13:20:31;95134.69;;;13.84;39.92
77723;BME280;67811;42.656;23.394;2024-03-08T13:24:37;95133.03;;;13.02;41.57
77723;BME280;67811;42.656;23.394;2024-03-08T13:32:47;95128.81;;;13.21;40.09
77723;BME280;67811;42.656;23.394;2024-03-08T13:36:53;95134.44;;;13.59;39.95
77723;BME280;67811;42.656;23.394;2024-03-08T13:40:59;95125.47;;;14.20;38.46
77723;BME280;67811;42.656;23.394;2024-03-08T13:45:06;95129.78;;;14.14;38.87
77723;BME280;67811;42.656;23.394;2024-03-08T13:49:11;95124.44;;;13.88;38.69
77723;BME280;67811;42.656;23.394;2024-03-08T13:53:16;95129.13;;;13.46;39.70
77723;BME280;67811;42.656;23.394;2024-03-08T13:57:22;95133.22;;;13.07;40.55
77723;BME280;67811;42.656;23.394;2024-03-08T14:01:27;95125.56;;;12.43;41.84
77723;BME280;67811;42.656;23.394;2024-03-08T14:05:32;95134.16;;;11.89;44.30
77723;BME280;67811;42.656;23.394;2024-03-08T14:09:37;95126.69;;;11.78;44.85
77723;BME280;67811;42.656;23.394;2024-03-08T14:13:43;95136.53;;;11.41;45.90
77723;BME280;67811;42.656;23.394;2024-03-08T14:17:55;95133.03;;;11.19;47.45
77723;BME280;67811;42.656;23.394;2024-03-08T14:22:00;95132.28;;;11.25;47.40
77723;BME280;67811;42.656;23.394;2024-03-08T14:26:06;95132.88;;;11.06;47.78
77723;BME280;67811;42.656;23.394;2024-03-08T14:30:12;95124.03;;;10.99;48.16
77723;BME280;67811;42.656;23.394;2024-03-08T14:34:18;95133.78;;;10.62;49.17
77723;BME280;67811;42.656;23.394;2024-03-08T14:38:23;95136.16;;;10.27;49.79
77723;BME280;67811;42.656;23.394;2024-03-08T14:42:28;95133.84;;;9.87;50.40
77723;BME280;67811;42.656;23.394;2024-03-08T14:46:33;95125.22;;;9.70;51.26
77723;BME280;67811;42.656;23.394;2024-03-08T14:50:39;95142.09;;;9.69;50.88
77723;BME280;67811;42.656;23.394;2024-03-08T14:54:44;95135.47;;;9.73;50.55
77723;BME280;67811;42.656;23.394;2024-03-08T14:58:49;95141.13;;;9.47;51.35
77723;BME280;67811;42.656;23.394;2024-03-08T15:02:55;95141.00;;;9.40;51.48
77723;BME280;67811;42.656;23.394;2024-03-08T15:07:02;95141.63;;;9.42;51.72
77723;BME280;67811;42.656;23.394;2024-03-08T15:11:07;95140.94;;;9.26;51.95
77723;BME280;67811;42.656;23.394;2024-03-08T15:15:12;95139.56;;;8.67;53.05
77723;BME280;67811;42.656;23.394;2024-03-08T15:19:18;95140.34;;;8.37;54.85
77723;BME280;67811;42.656;23.394;2024-03-08T15:23:23;95141.97;;;8.46;55.11
77723;BME280;67811;42.656;23.394;2024-03-08T15:27:28;95146.44;;;8.37;55.90
77723;BME280;67811;42.656;23.394;2024-03-08T15:31:34;95149.59;;;8.41;56.42
77723;BME280;67811;42.656;23.394;2024-03-08T15:35:39;95155.88;;;8.15;56.96
77723;BME280;67811;42.656;23.394;2024-03-08T15:39:44;95155.09;;;7.74;57.64
77723;BME280;67811;42.656;23.394;2024-03-08T15:43:50;95163.00;;;7.42;59.42
77723;BME280;67811;42.656;23.394;2024-03-08T15:47:55;95167.44;;;7.41;59.89
77723;BME280;67811;42.656;23.394;2024-03-08T15:52:00;95170.75;;;7.43;60.24
77723;BME280;67811;42.656;23.394;2024-03-08T15:56:06;95179.66;;;7.58;59.93
77723;BME280;67811;42.656;23.394;2024-03-08T16:00:12;95175.84;;;7.45;60.64
77723;BME280;67811;42.656;23.394;2024-03-08T16:04:17;95177.84;;;7.59;60.49
77723;BME280;67811;42.656;23.394;2024-03-08T16:08:23;95182.03;;;7.03;61.81
77723;BME280;67811;42.656;23.394;2024-03-08T16:12:28;95187.66;;;7.16;61.28
77723;BME280;67811;42.656;23.394;2024-03-08T16:16:33;95199.34;;;7.13;61.04
77723;BME280;67811;42.656;23.394;2024-03-08T16:20:39;95191.59;;;7.04;61.92
77723;BME280;67811;42.656;23.394;2024-03-08T16:24:45;95199.28;;;6.97;61.84
77723;BME280;67811;42.656;23.394;2024-03-08T16:28:50;95197.50;;;6.98;61.99
77723;BME280;67811;42.656;23.394;2024-03-08T16:32:55;95197.97;;;6.93;62.33
77723;BME280;67811;42.656;23.394;2024-03-08T16:37:01;95208.34;;;6.95;62.44
77723;BME280;67811;42.656;23.394;2024-03-08T16:41:06;95204.97;;;7.19;61.56
77723;BME280;67811;42.656;23.394;2024-03-08T16:45:12;95216.16;;;7.12;61.51
77723;BME280;67811;42.656;23.394;2024-03-08T16:49:17;95221.72;;;7.01;61.44
77723;BME280;67811;42.656;23.394;2024-03-08T16:53:23;95219.53;;;6.89;62.33
77723;BME280;67811;42.656;23.394;2024-03-08T16:57:28;95221.28;;;6.72;63.26
77723;BME280;67811;42.656;23.394;2024-03-08T17:01:33;95231.81;;;6.72;63.40
77723;BME280;67811;42.656;23.394;2024-03-08T17:05:39;95230.47;;;6.68;63.69
77723;BME280;67811;42.656;23.394;2024-03-08T17:09:44;95241.47;;;6.63;63.31
77723;BME280;67811;42.656;23.394;2024-03-08T17:13:49;95246.41;;;6.66;64.20
77723;BME280;67811;42.656;23.394;2024-03-08T17:17:56;95249.19;;;6.65;64.00
77723;BME280;67811;42.656;23.394;2024-03-08T17:22:01;95250.50;;;6.60;64.55
77723;BME280;67811;42.656;23.394;2024-03-08T17:26:07;95256.75;;;6.59;64.05
77723;BME280;67811;42.656;23.394;2024-03-08T17:30:12;95254.34;;;5.96;65.39
77723;BME280;67811;42.656;23.394;2024-03-08T17:34:18;95257.47;;;5.46;66.84
77723;BME280;67811;42.656;23.394;2024-03-08T17:38:23;95246.25;;;5.26;68.27
77723;BME280;67811;42.656;23.394;2024-03-08T17:42:28;95252.94;;;4.93;69.06
77723;BME280;67811;42.656;23.394;2024-03-08T17:46:33;95253.72;;;4.76;70.90
77723;BME280;67811;42.656;23.394;2024-03-08T17:50:39;95256.56;;;4.55;72.03
77723;BME280;67811;42.656;23.394;2024-03-08T17:54:46;95257.84;;;4.51;73.41
77723;BME280;67811;42.656;23.394;2024-03-08T17:58:51;95265.25;;;4.56;73.21
77723;BME280;67811;42.656;23.394;2024-03-08T18:02:56;95257.16;;;4.49;73.43
77723;BME280;67811;42.656;23.394;2024-03-08T18:07:20;95266.56;;;4.42;74.55
77723;BME280;67811;42.656;23.394;2024-03-08T18:11:25;95266.41;;;4.43;73.57
77723;BME280;67811;42.656;23.394;2024-03-08T18:15:30;95267.16;;;4.26;73.03
77723;BME280;67811;42.656;23.394;2024-03-08T18:19:36;95276.84;;;4.06;73.79
77723;BME280;67811;42.656;23.394;2024-03-08T18:23:41;95270.81;;;3.86;73.73
77723;BME280;67811;42.656;23.394;2024-03-08T18:27:46;95273.97;;;3.90;74.73
77723;BME280;67811;42.656;23.394;2024-03-08T18:31:51;95265.69;;;3.94;74.69
77723;BME280;67811;42.656;23.394;2024-03-08T18:35:57;95260.84;;;3.90;74.39
77723;BME280;67811;42.656;23.394;2024-03-08T18:40:02;95255.34;;;3.93;75.58
77723;BME280;67811;42.656;23.394;2024-03-08T18:44:08;95260.59;;;3.83;75.56
77723;BME280;67811;42.656;23.394;2024-03-08T18:48:13;95270.38;;;3.72;76.01
77723;BME280;67811;42.656;23.394;2024-03-08T18:52:18;95275.09;;;3.58;76.30
77723;BME280;67811;42.656;23.394;2024-03-08T18:56:23;95274.94;;;3.50;76.20
77723;BME280;67811;42.656;23.394;2024-03-08T19:00:29;95277.16;;;3.55;76.10
77723;BME280;67811;42.656;23.394;2024-03-08T19:04:34;95274.38;;;3.56;75.87
77723;BME280;67811;42.656;23.394;2024-03-08T19:08:40;95271.09;;;3.54;76.63
77723;BME280;67811;42.656;23.394;2024-03-08T19:12:50;95271.63;;;3.48;76.31
77723;BME280;67811;42.656;23.394;2024-03-08T19:16:56;95277.81;;;3.37;76.21
77723;BME280;67811;42.656;23.394;2024-03-08T19:21:01;95275.63;;;3.52;76.37
77723;BME280;67811;42.656;23.394;2024-03-08T19:25:07;95275.78;;;3.41;76.40
77723;BME280;67811;42.656;23.394;2024-03-08T19:29:12;95270.81;;;3.48;77.07
77723;BME280;67811;42.656;23.394;2024-03-08T19:33:17;95279.06;;;3.43;77.84
77723;BME280;67811;42.656;23.394;2024-03-08T19:37:23;95275.47;;;3.44;77.42
77723;BME280;67811;42.656;23.394;2024-03-08T19:41:28;95275.34;;;3.36;77.56
77723;BME280;67811;42.656;23.394;2024-03-08T19:45:33;95283.88;;;3.38;77.39
77723;BME280;67811;42.656;23.394;2024-03-08T19:49:38;95281.53;;;3.35;77.59
77723;BME280;67811;42.656;23.394;2024-03-08T19:53:44;95281.66;;;3.33;77.35
77723;BME280;67811;42.656;23.394;2024-03-08T19:57:50;95281.38;;;3.27;78.11
77723;BME280;67811;42.656;23.394;2024-03-08T20:01:55;95292.88;;;3.55;79.18
77723;BME280;67811;42.656;23.394;2024-03-08T20:06:00;95301.28;;;3.49;78.02
77723;BME280;67811;42.656;23.394;2024-03-08T20:10:06;95300.03;;;3.53;77.24
77723;BME280;67811;42.656;23.394;2024-03-08T20:14:11;95300.84;;;3.43;77.43
77723;BME280;67811;42.656;23.394;2024-03-08T20:18:17;95299.47;;;3.49;77.86
77723;BME280;67811;42.656;23.394;2024-03-08T20:22:22;95302.78;;;3.61;77.83
77723;BME280;67811;42.656;23.394;2024-03-08T20:26:27;95300.88;;;3.63;77.49
77723;BME280;67811;42.656;23.394;2024-03-08T20:30:33;95306.94;;;3.63;77.14
77723;BME280;67811;42.656;23.394;2024-03-08T20:34:38;95306.25;;;3.71;77.27
77723;BME280;67811;42.656;23.394;2024-03-08T20:38:43;95312.03;;;3.84;76.66
77723;BME280;67811;42.656;23.394;2024-03-08T20:42:52;95308.03;;;3.61;77.61
77723;BME280;67811;42.656;23.394;2024-03-08T20:46:58;95317.97;;;3.48;77.84
77723;BME280;67811;42.656;23.394;2024-03-08T20:51:03;95307.34;;;3.49;78.13
77723;BME280;67811;42.656;23.394;2024-03-08T20:55:09;95320.69;;;3.46;78.08
77723;BME280;67811;42.656;23.394;2024-03-08T20:59:15;95312.44;;;3.41;78.41
77723;BME280;67811;42.656;23.394;2024-03-08T21:03:20;95310.22;;;3.36;78.54
77723;BME280;67811;42.656;23.394;2024-03-08T21:07:25;95312.69;;;3.38;79.31
77723;BME280;67811;42.656;23.394;2024-03-08T21:11:31;95313.00;;;3.54;78.71
77723;BME280;67811;42.656;23.394;2024-03-08T21:15:36;95302.38;;;3.65;77.54
77723;BME280;67811;42.656;23.394;2024-03-08T21:19:41;95307.91;;;3.53;78.69
77723;BME280;67811;42.656;23.394;2024-03-08T21:23:47;95306.47;;;3.29;78.78
77723;BME280;67811;42.656;23.394;2024-03-08T21:27:52;95308.81;;;3.32;79.08
77723;BME280;67811;42.656;23.394;2024-03-08T21:32:00;95303.25;;;3.06;79.96
77723;BME280;67811;42.656;23.394;2024-03-08T21:36:06;95316.28;;;2.87;80.94
77723;BME280;67811;42.656;23.394;2024-03-08T21:40:11;95308.09;;;2.71;81.47
77723;BME280;67811;42.656;23.394;2024-03-08T21:44:17;95302.75;;;2.82;81.07
77723;BME280;67811;42.656;23.394;2024-03-08T21:48:22;95295.88;;;2.90;80.66